Broseley, United Kingdom
Current Conditions -  °F | °C
As of 1:50 AM on Monday 22 Dec 2014 (Local Time) from EGOS Reporting Station
Broken Clouds Broken Clouds  
Wind Chill: 12°   Ceiling: 1700
Heat Index: 12°   Visibility: 6mi
Dew Point:   Wind: 23mph
Humidity: 82%   Direction: 230°SW
Pressure: 29.97"   Gusts: NA
Location:  52.61°N, 2.48°W
Report Text: EGOS 220150Z AUTO 23020KT 9999 BKN017/// BKN026/// 12/09 Q1015
Loading
Personal Weather Stations






























Interactive Weather Map New forecast layout! Learn more

10-Day Weather Forecast

Advertisements
Track Severe Weather on mobile